Time;durP1;ratioP1;P1;durP2;ratioP2;P2;SDS_P1;SDS_P2;PMS_P1;PMS_P2;Temp;Humidity;BMP_temperature;BMP_pressure;BME280_temperature;BME280_humidity;BME280_pressure;Samples;Min_cycle;Max_cycle;Signal;HPM_P1;HPM_P2
2021/05/29 00:00:55;;;;;;;;;;;;;;;17.98;54.63;99543.00;5115302;28;20397;-51
2021/05/29 00:03:21;;;;;;;;;;;;;;;18.43;53.65;99538.22;5116216;28;19955;-51
2021/05/29 00:05:46;;;;;;;;;;;;;;;17.83;54.83;99542.84;5098136;28;19944;-50
2021/05/29 00:08:11;;;;;;;;;;;;;;;17.92;54.12;99538.66;5116491;28;20402;-50
2021/05/29 00:10:37;;;;;;;;;;;;;;;18.10;54.04;99540.13;5116543;27;19911;-50
2021/05/29 00:13:02;;;;;;;;;;;;;;;17.96;54.31;99533.56;5116972;28;20307;-50
2021/05/29 00:15:28;;;;;;;;;;;;;;;17.82;54.26;99537.72;5116046;28;19924;-50
2021/05/29 00:17:53;;;;;;;;;;;;;;;18.19;53.49;99542.38;5116888;27;20549;-50
2021/05/29 00:20:18;;;;;;;;;;;;;;;17.79;53.93;99515.63;5116832;28;19933;-50
2021/05/29 00:22:44;;;;;;;;;;;;;;;17.84;54.57;99541.81;5114692;28;19918;-52
2021/05/29 00:25:09;;;;;;;;;;;;;;;17.63;55.98;99546.19;5116442;28;19955;-53
2021/05/29 00:27:34;;;;;;;;;;;;;;;17.71;55.00;99542.22;5116771;28;20371;-53
2021/05/29 00:30:00;;;;;;;;;;;;;;;17.78;54.64;99543.63;5116557;27;20423;-52
2021/05/29 00:32:25;;;;;;;;;;;;;;;17.91;54.36;99552.38;5116070;28;19912;-50
2021/05/29 00:34:50;;;;;;;;;;;;;;;18.01;54.10;99549.78;5115909;28;19926;-50
2021/05/29 00:37:15;;;;;;;;;;;;;;;17.98;54.63;99532.25;5115417;28;19976;-51
2021/05/29 00:39:41;;;;;;;;;;;;;;;17.73;54.49;99545.47;5113326;28;19912;-53
2021/05/29 00:42:06;;;;;;;;;;;;;;;17.80;54.17;99554.16;5112929;28;19916;-51
2021/05/29 00:44:45;;;;;;;;;;;;;;;18.15;53.18;99544.75;5112593;28;20040;-51
2021/05/29 00:47:10;;;;;;;;;;;;;;;17.87;53.66;99546.69;5112599;28;20419;-50
2021/05/29 00:49:35;;;;;;;;;;;;;;;17.39;55.27;99537.59;5112447;28;19943;-51
2021/05/29 00:52:01;;;;;;;;;;;;;;;17.46;54.83;99537.38;5112552;28;19911;-49
2021/05/29 00:54:26;;;;;;;;;;;;;;;17.09;55.89;99543.44;5112443;28;19984;-50
2021/05/29 00:56:51;;;;;;;;;;;;;;;17.32;55.79;99543.16;5110443;28;19995;-52
2021/05/29 00:59:16;;;;;;;;;;;;;;;17.18;55.99;99539.25;5111933;28;20247;-51
2021/05/29 01:01:42;;;;;;;;;;;;;;;17.41;55.54;99535.47;5110929;28;19958;-53
2021/05/29 01:04:07;;;;;;;;;;;;;;;16.76;55.98;99527.16;5111263;28;20331;-51
2021/05/29 01:06:32;;;;;;;;;;;;;;;16.99;55.85;99542.25;5112773;28;20022;-51
2021/05/29 01:08:57;;;;;;;;;;;;;;;17.15;55.05;99543.28;5112995;28;19911;-52
2021/05/29 01:11:23;;;;;;;;;;;;;;;17.34;55.36;99541.06;5112171;28;20288;-52
2021/05/29 01:13:48;;;;;;;;;;;;;;;17.17;55.79;99534.94;5112695;28;19915;-49
2021/05/29 01:16:47;;;;;;;;;;;;;;;17.54;54.58;99535.06;5112067;28;19919;-51
2021/05/29 01:19:05;;;;;;;;;;;;;;;17.16;55.80;99533.31;5110640;28;20331;-52
2021/05/29 01:21:31;;;;;;;;;;;;;;;17.35;54.47;99539.19;5112535;28;19968;-49
2021/05/29 01:23:57;;;;;;;;;;;;;;;17.11;55.51;99539.44;5110303;28;20383;-51
2021/05/29 01:26:22;;;;;;;;;;;;;;;17.12;55.37;99530.31;5112577;28;19951;-51
2021/05/29 01:28:53;;;;;;;;;;;;;;;17.16;55.20;99536.81;5112636;28;19912;-51
2021/05/29 01:31:19;;;;;;;;;;;;;;;17.32;54.56;99518.97;5110785;28;19931;-50
2021/05/29 01:33:44;;;;;;;;;;;;;;;17.35;54.58;99523.84;5110791;28;19912;-51
2021/05/29 01:36:10;;;;;;;;;;;;;;;17.27;55.21;99520.78;5110406;28;20553;-52
2021/05/29 01:38:36;;;;;;;;;;;;;;;17.48;54.47;99529.91;5112061;28;19912;-52
2021/05/29 01:41:08;;;;;;;;;;;;;;;17.42;54.84;99537.09;5111949;28;20469;-52
2021/05/29 01:43:37;;;;;;;;;;;;;;;17.65;54.23;99535.16;5111600;28;19916;-51
2021/05/29 01:46:04;;;;;;;;;;;;;;;18.04;53.01;99526.91;5111829;28;19922;-49
2021/05/29 01:48:34;;;;;;;;;;;;;;;17.90;53.37;99524.66;5110530;28;20018;-50
2021/05/29 01:50:59;;;;;;;;;;;;;;;17.85;54.09;99524.59;5111739;28;20383;-49
2021/05/29 01:53:25;;;;;;;;;;;;;;;17.78;55.98;99524.78;5111908;28;19908;-53
2021/05/29 01:55:50;;;;;;;;;;;;;;;18.05;53.20;99529.34;5109895;28;19923;-50
2021/05/29 01:58:15;;;;;;;;;;;;;;;18.00;53.23;99531.19;5111438;28;20065;-49
2021/05/29 02:00:41;;;;;;;;;;;;;;;17.98;53.13;99532.25;5111430;28;19915;-51
2021/05/29 02:03:06;;;;;;;;;;;;;;;17.69;54.17;99534.41;5111916;28;20482;-52
2021/05/29 02:05:32;;;;;;;;;;;;;;;17.84;54.13;99523.00;5111462;28;19916;-51
2021/05/29 02:08:00;;;;;;;;;;;;;;;17.91;52.87;99531.63;5098008;28;20382;-50
2021/05/29 02:10:27;;;;;;;;;;;;;;;17.83;53.49;99526.69;5091503;28;19912;-49
2021/05/29 02:12:55;;;;;;;;;;;;;;;18.10;52.42;99523.16;5091328;28;19916;-51
2021/05/29 02:15:21;;;;;;;;;;;;;;;18.10;53.39;99529.34;5090819;28;19924;-50
2021/05/29 02:17:50;;;;;;;;;;;;;;;17.98;53.06;99529.53;5090988;28;19955;-47
2021/05/29 02:20:16;;;;;;;;;;;;;;;17.73;53.02;99543.56;5091062;28;19934;-48
2021/05/29 02:22:41;;;;;;;;;;;;;;;17.36;53.71;99538.09;5098635;28;19911;-49
2021/05/29 02:25:07;;;;;;;;;;;;;;;17.44;53.50;99531.44;5111337;28;19916;-51
2021/05/29 02:27:32;;;;;;;;;;;;;;;17.53;52.99;99535.31;5109994;28;19915;-51
2021/05/29 02:29:57;;;;;;;;;;;;;;;17.56;52.95;99530.22;5111278;28;20328;-49
2021/05/29 02:32:22;;;;;;;;;;;;;;;17.65;52.05;99537.84;5111198;28;19912;-49
2021/05/29 02:34:48;;;;;;;;;;;;;;;17.73;52.11;99524.75;5110995;28;20436;-49
2021/05/29 02:37:13;;;;;;;;;;;;;;;17.41;53.58;99526.59;5110728;28;19912;-49
2021/05/29 02:39:38;;;;;;;;;;;;;;;17.50;53.18;99535.84;5110778;28;19919;-50
2021/05/29 02:42:04;;;;;;;;;;;;;;;17.62;54.40;99531.09;5110703;28;19970;-50
2021/05/29 02:44:29;;;;;;;;;;;;;;;17.58;53.27;99529.97;5110973;28;19916;-51
2021/05/29 02:46:54;;;;;;;;;;;;;;;17.53;54.17;99530.72;5110939;28;19912;-50
2021/05/29 02:49:20;;;;;;;;;;;;;;;17.38;54.09;99525.19;5111241;28;20003;-50
2021/05/29 02:51:45;;;;;;;;;;;;;;;17.49;53.53;99529.63;5111149;28;20469;-49
2021/05/29 02:54:10;;;;;;;;;;;;;;;17.06;53.93;99531.34;5110839;28;19951;-51
2021/05/29 02:56:36;;;;;;;;;;;;;;;17.44;53.50;99534.97;5110463;28;20348;-49
2021/05/29 02:59:01;;;;;;;;;;;;;;;17.43;54.39;99529.84;5110483;28;19999;-50
2021/05/29 03:01:27;;;;;;;;;;;;;;;17.33;54.47;99534.03;5110432;28;19916;-49
2021/05/29 03:03:52;;;;;;;;;;;;;;;17.41;54.07;99530.09;5109979;28;19967;-49
2021/05/29 03:06:17;;;;;;;;;;;;;;;16.96;55.08;99533.88;5110541;28;19912;-52
2021/05/29 03:08:42;;;;;;;;;;;;;;;17.05;54.58;99539.66;5110650;28;19958;-50
2021/05/29 03:11:09;;;;;;;;;;;;;;;17.04;54.00;99530.78;5110743;28;19979;-50
2021/05/29 03:13:34;;;;;;;;;;;;;;;17.28;54.18;99546.63;5110340;28;19996;-49
2021/05/29 03:15:59;;;;;;;;;;;;;;;17.20;53.30;99543.31;5109531;28;19976;-49
2021/05/29 03:18:25;;;;;;;;;;;;;;;17.37;53.84;99539.72;5109891;28;19918;-53
2021/05/29 03:20:50;;;;;;;;;;;;;;;17.26;53.90;99560.31;5110072;28;19911;-50
2021/05/29 03:23:15;;;;;;;;;;;;;;;17.81;53.45;99552.25;5108292;28;20382;-50
2021/05/29 03:25:42;;;;;;;;;;;;;;;17.33;52.96;99554.75;5110472;28;20279;-51
2021/05/29 03:28:08;;;;;;;;;;;;;;;17.41;53.80;99551.59;5108964;28;19911;-53
2021/05/29 03:30:33;;;;;;;;;;;;;;;17.59;52.90;99563.88;5109979;28;20006;-51
2021/05/29 03:32:59;;;;;;;;;;;;;;;17.48;53.13;99557.59;5109984;28;19983;-52
2021/05/29 03:35:24;;;;;;;;;;;;;;;17.71;52.78;99555.69;5109950;28;19911;-50
2021/05/29 03:37:49;;;;;;;;;;;;;;;17.89;52.75;99558.00;5110358;28;19911;-51
2021/05/29 03:40:15;;;;;;;;;;;;;;;17.76;53.07;99561.09;5110061;28;19935;-50
2021/05/29 03:42:40;;;;;;;;;;;;;;;17.80;53.40;99562.22;5110044;28;19915;-51
2021/05/29 03:45:07;;;;;;;;;;;;;;;17.92;52.17;99562.88;5109848;28;19943;-49
2021/05/29 03:47:32;;;;;;;;;;;;;;;18.05;51.07;99571.59;5110225;28;19923;-50
2021/05/29 03:49:57;;;;;;;;;;;;;;;18.02;51.33;99562.16;5110286;28;19912;-50
2021/05/29 03:52:23;;;;;;;;;;;;;;;18.14;52.45;99570.88;5110262;28;20257;-51
2021/05/29 03:54:48;;;;;;;;;;;;;;;18.24;51.05;99572.00;5091279;28;20371;-52
2021/05/29 03:57:13;;;;;;;;;;;;;;;17.93;51.45;99569.06;5110118;28;19912;-52
2021/05/29 03:59:38;;;;;;;;;;;;;;;17.85;51.82;99570.34;5110022;28;19915;-52
2021/05/29 04:02:04;;;;;;;;;;;;;;;17.71;52.17;99561.88;5110040;28;20029;-50
2021/05/29 04:04:29;;;;;;;;;;;;;;;18.25;51.89;99568.25;5109845;28;19922;-53
2021/05/29 04:06:54;;;;;;;;;;;;;;;18.30;50.20;99555.63;5109705;28;19912;-54
2021/05/29 04:09:20;;;;;;;;;;;;;;;18.07;51.05;99567.59;5109377;28;20003;-50
2021/05/29 04:11:45;;;;;;;;;;;;;;;18.19;50.92;99562.03;5109271;28;19994;-50
2021/05/29 04:14:10;;;;;;;;;;;;;;;18.71;49.75;99563.94;5108921;28;19930;-51
2021/05/29 04:16:35;;;;;;;;;;;;;;;19.05;48.50;99570.91;5112428;28;19922;-52
2021/05/29 04:19:01;;;;;;;;;;;;;;;20.00;47.25;99572.47;5112998;28;19926;-52
2021/05/29 04:21:26;;;;;;;;;;;;;;;20.75;45.80;99561.84;5113029;28;19912;-50
2021/05/29 04:23:51;;;;;;;;;;;;;;;20.81;45.16;99559.94;5110913;28;19950;-50
2021/05/29 04:26:17;;;;;;;;;;;;;;;20.99;44.39;99567.47;5112537;28;19912;-52
2021/05/29 04:28:42;;;;;;;;;;;;;;;20.98;44.51;99571.25;5112837;28;20002;-50
2021/05/29 04:31:07;;;;;;;;;;;;;;;21.44;43.56;99571.06;5112637;28;19919;-52
2021/05/29 04:33:33;;;;;;;;;;;;;;;21.80;42.27;99559.19;5112734;28;19911;-52
2021/05/29 04:35:58;;;;;;;;;;;;;;;22.06;42.46;99562.50;5112205;28;19912;-53
2021/05/29 04:38:24;;;;;;;;;;;;;;;21.97;42.05;99567.72;5112871;28;20494;-52
2021/05/29 04:40:49;;;;;;;;;;;;;;;21.82;42.38;99565.94;5112755;28;19919;-51
2021/05/29 04:43:14;;;;;;;;;;;;;;;22.58;42.01;99573.69;5112433;27;19969;-51
2021/05/29 04:45:41;;;;;;;;;;;;;;;22.36;41.37;99576.91;5110511;28;19912;-53
2021/05/29 04:48:06;;;;;;;;;;;;;;;22.64;41.20;99576.06;5111944;28;19961;-51
2021/05/29 04:50:32;;;;;;;;;;;;;;;22.90;41.83;99575.78;5112063;28;20014;-52
2021/05/29 04:52:57;;;;;;;;;;;;;;;23.14;41.15;99589.38;5111909;28;19911;-51
2021/05/29 04:55:22;;;;;;;;;;;;;;;22.80;40.71;99581.34;5111526;28;20120;-52
2021/05/29 04:57:48;;;;;;;;;;;;;;;22.16;42.00;99578.69;5111895;28;19927;-53
2021/05/29 05:00:14;;;;;;;;;;;;;;;21.54;43.15;99578.31;5111842;28;19989;-52
2021/05/29 05:02:39;;;;;;;;;;;;;;;21.28;43.71;99570.31;5111851;28;19912;-51
2021/05/29 05:05:05;;;;;;;;;;;;;;;21.03;44.13;99565.81;5112188;28;19923;-53
2021/05/29 05:07:30;;;;;;;;;;;;;;;21.23;44.56;99574.94;5112167;28;20422;-52
2021/05/29 05:09:55;;;;;;;;;;;;;;;20.56;44.95;99572.44;5111634;28;19961;-52
2021/05/29 05:12:21;;;;;;;;;;;;;;;20.02;46.43;99578.44;5111772;28;19920;-51
2021/05/29 05:14:46;;;;;;;;;;;;;;;20.22;45.39;99589.22;5111492;28;20011;-53
2021/05/29 05:17:12;;;;;;;;;;;;;;;20.14;45.88;99589.75;5111463;28;20319;-53
2021/05/29 05:19:40;;;;;;;;;;;;;;;20.78;45.35;99595.66;5110771;28;20307;-50
2021/05/29 05:22:05;;;;;;;;;;;;;;;20.77;45.16;99592.16;5101526;28;19912;-53
2021/05/29 05:24:30;;;;;;;;;;;;;;;21.17;43.70;99600.38;5111547;28;20492;-50
2021/05/29 05:26:56;;;;;;;;;;;;;;;21.55;43.02;99587.25;5110485;28;20003;-52
2021/05/29 05:29:21;;;;;;;;;;;;;;;21.46;43.28;99592.44;5092641;28;19970;-52
2021/05/29 05:31:46;;;;;;;;;;;;;;;21.62;44.42;99585.84;5111414;28;19912;-51
2021/05/29 05:34:12;;;;;;;;;;;;;;;21.75;43.70;99583.59;5111758;28;19915;-50
2021/05/29 05:36:38;;;;;;;;;;;;;;;21.26;43.60;99577.09;5111168;28;19912;-50
2021/05/29 05:39:04;;;;;;;;;;;;;;;21.65;43.34;99570.94;5111002;28;20002;-51
2021/05/29 05:41:29;;;;;;;;;;;;;;;20.83;44.29;99568.63;5111436;28;19943;-50
2021/05/29 05:43:55;;;;;;;;;;;;;;;20.63;44.70;99564.88;5111435;28;20320;-51
2021/05/29 05:46:20;;;;;;;;;;;;;;;20.52;48.08;99571.34;5111036;28;19942;-50
2021/05/29 05:48:45;;;;;;;;;;;;;;;20.65;46.13;99578.13;5111349;28;19923;-53
2021/05/29 05:51:10;;;;;;;;;;;;;;;21.09;44.15;99583.66;5111381;28;19916;-51
2021/05/29 05:53:36;;;;;;;;;;;;;;;20.73;44.32;99590.25;5111355;28;20069;-52
2021/05/29 05:56:03;;;;;;;;;;;;;;;20.62;45.05;99600.28;5110747;28;19923;-53
2021/05/29 05:58:29;;;;;;;;;;;;;;;21.05;44.50;99601.50;5110759;28;20260;-51
2021/05/29 06:00:54;;;;;;;;;;;;;;;20.98;44.62;99595.59;5110523;28;19908;-51
2021/05/29 06:03:20;;;;;;;;;;;;;;;21.10;44.23;99592.59;5110596;28;19933;-50
2021/05/29 06:05:46;;;;;;;;;;;;;;;20.60;45.77;99594.34;5110055;28;19911;-50
2021/05/29 06:08:11;;;;;;;;;;;;;;;20.70;45.54;99588.94;5092947;28;20117;-49
2021/05/29 06:10:36;;;;;;;;;;;;;;;21.09;46.66;99596.34;5089266;28;19912;-53
2021/05/29 06:13:02;;;;;;;;;;;;;;;21.52;47.24;99590.53;5088367;28;20280;-49
2021/05/29 06:20:41;;;;;;;;;;;;;;;21.51;46.47;99586.97;5090325;28;19916;-51
2021/05/29 06:23:06;;;;;;;;;;;;;;;21.29;45.26;99585.44;5101206;28;20364;-50
2021/05/29 06:25:31;;;;;;;;;;;;;;;21.58;44.41;99587.50;5109860;28;20090;-51
2021/05/29 06:27:57;;;;;;;;;;;;;;;21.88;43.03;99587.59;5081687;28;19916;-49
2021/05/29 06:30:22;;;;;;;;;;;;;;;21.83;42.43;99572.16;5070025;28;19919;-49
2021/05/29 06:32:47;;;;;;;;;;;;;;;21.97;44.91;99570.44;5070077;28;19912;-49
2021/05/29 06:35:13;;;;;;;;;;;;;;;21.84;43.53;99552.13;5084569;28;19923;-52
2021/05/29 06:37:38;;;;;;;;;;;;;;;22.19;42.22;99556.41;5088331;28;19916;-50
2021/05/29 06:40:04;;;;;;;;;;;;;;;22.99;43.71;99548.81;5089445;28;19994;-49
2021/05/29 06:42:29;;;;;;;;;;;;;;;23.95;41.72;99562.19;5089365;28;20287;-50
2021/05/29 06:44:55;;;;;;;;;;;;;;;24.26;40.02;99552.69;5089033;28;19934;-48
2021/05/29 06:47:20;;;;;;;;;;;;;;;24.98;38.90;99552.16;5089101;28;19945;-50
2021/05/29 06:49:45;;;;;;;;;;;;;;;25.05;37.90;99555.25;5089054;28;19934;-48
2021/05/29 06:52:14;;;;;;;;;;;;;;;24.81;38.78;99552.78;5089393;28;19924;-49
2021/05/29 06:59:57;;;;;;;;;;;;;;;25.80;36.44;99527.72;5089476;28;19919;-49
2021/05/29 07:02:22;;;;;;;;;;;;;;;25.76;37.34;99530.28;5087554;28;19935;-48
2021/05/29 07:04:47;;;;;;;;;;;;;;;26.62;36.10;99531.94;5089391;28;19974;-48
2021/05/29 07:07:13;;;;;;;;;;;;;;;26.71;34.98;99545.59;5089253;28;20007;-47
2021/05/29 07:09:38;;;;;;;;;;;;;;;26.81;34.79;99556.22;5085649;28;20003;-49
2021/05/29 07:12:03;;;;;;;;;;;;;;;26.25;35.62;99552.25;5071595;28;19916;-48
2021/05/29 07:14:29;;;;;;;;;;;;;;;26.78;35.36;99559.59;5077658;28;19972;-49
2021/05/29 07:16:55;;;;;;;;;;;;;;;27.72;33.91;99551.09;5100156;28;19993;-48
2021/05/29 07:19:20;;;;;;;;;;;;;;;27.75;33.07;99555.09;5109489;28;20283;-51
2021/05/29 07:21:46;;;;;;;;;;;;;;;28.01;32.67;99546.88;5100297;28;19919;-48
2021/05/29 07:24:11;;;;;;;;;;;;;;;28.80;31.06;99544.69;5109556;28;19941;-49
2021/05/29 07:26:36;;;;;;;;;;;;;;;27.75;31.18;99550.41;5109764;28;19912;-47
2021/05/29 07:29:02;;;;;;;;;;;;;;;27.56;31.79;99547.22;5109828;28;19951;-49
2021/05/29 07:31:28;;;;;;;;;;;;;;;28.10;32.16;99561.31;5109791;28;19919;-50
2021/05/29 07:33:55;;;;;;;;;;;;;;;28.54;31.22;99550.28;5109271;28;19912;-48
2021/05/29 07:36:20;;;;;;;;;;;;;;;27.68;31.53;99552.81;5108880;28;20010;-50
2021/05/29 07:38:46;;;;;;;;;;;;;;;27.56;32.06;99542.53;5109259;28;20049;-48
2021/05/29 07:41:11;;;;;;;;;;;;;;;27.68;32.62;99550.09;5109111;28;19923;-48
2021/05/29 07:43:36;;;;;;;;;;;;;;;27.43;31.83;99546.25;5109423;28;19916;-49
2021/05/29 07:46:03;;;;;;;;;;;;;;;27.43;32.93;99547.03;5109486;28;20010;-47
2021/05/29 07:48:28;;;;;;;;;;;;;;;27.79;32.49;99553.31;5109842;28;20417;-49
2021/05/29 07:51:03;;;;;;;;;;;;;;;27.76;32.27;99559.41;5113819;28;20006;-48
2021/05/29 07:53:32;;;;;;;;;;;;;;;28.20;31.00;99536.38;5113644;28;20295;-47
2021/05/29 07:55:58;;;;;;;;;;;;;;;27.25;31.96;99551.69;5113034;28;19971;-48
2021/05/29 07:58:23;;;;;;;;;;;;;;;26.62;33.51;99550.22;5113242;28;19915;-48
2021/05/29 08:00:51;;;;;;;;;;;;;;;26.92;33.54;99554.00;5113176;28;19912;-47
2021/05/29 08:03:17;;;;;;;;;;;;;;;27.27;33.15;99546.72;5113156;28;19912;-47
2021/05/29 08:05:42;;;;;;;;;;;;;;;27.44;32.67;99547.88;5113272;28;19930;-48
2021/05/29 08:08:08;;;;;;;;;;;;;;;27.13;33.31;99550.69;5113678;28;20560;-47
2021/05/29 08:10:33;;;;;;;;;;;;;;;27.35;32.93;99547.84;5113522;28;19911;-49
2021/05/29 08:12:59;;;;;;;;;;;;;;;27.32;33.15;99547.69;5112937;28;20430;-47
2021/05/29 08:15:24;;;;;;;;;;;;;;;27.44;32.66;99540.47;5112378;28;19931;-47
2021/05/29 08:17:49;;;;;;;;;;;;;;;27.86;32.76;99543.50;5111960;28;19970;-48
2021/05/29 08:20:14;;;;;;;;;;;;;;;28.62;31.65;99547.50;5112059;28;19943;-48
2021/05/29 08:22:40;;;;;;;;;;;;;;;27.37;32.77;99536.59;5106907;28;19912;-48
2021/05/29 08:25:06;;;;;;;;;;;;;;;27.02;33.90;99548.25;5112361;28;19916;-48
2021/05/29 08:27:31;;;;;;;;;;;;;;;27.21;33.70;99544.44;5112611;28;19918;-51
2021/05/29 08:29:58;;;;;;;;;;;;;;;27.47;33.55;99541.75;5105469;28;19916;-48
2021/05/29 08:32:23;;;;;;;;;;;;;;;27.20;33.61;99540.88;5092118;28;19951;-51
2021/05/29 08:34:48;;;;;;;;;;;;;;;28.13;33.06;99543.47;5092691;28;19962;-48
2021/05/29 08:37:14;;;;;;;;;;;;;;;28.12;33.18;99548.16;5090865;28;20384;-48
2021/05/29 08:39:39;;;;;;;;;;;;;;;28.65;31.70;99555.09;5094604;28;19964;-47
2021/05/29 08:42:05;;;;;;;;;;;;;;;28.50;32.05;99550.09;5092102;28;19958;-47
2021/05/29 08:44:32;;;;;;;;;;;;;;;28.14;32.62;99545.06;5090448;28;19916;-48
2021/05/29 08:46:57;;;;;;;;;;;;;;;28.90;31.85;99551.72;5091881;28;20011;-47
2021/05/29 08:49:22;;;;;;;;;;;;;;;28.71;31.00;99547.47;5092041;28;20084;-47
2021/05/29 08:51:48;;;;;;;;;;;;;;;29.25;30.44;99541.38;5092062;28;19939;-47
2021/05/29 08:54:13;;;;;;;;;;;;;;;29.15;30.40;99542.59;5091633;28;19912;-50
2021/05/29 08:56:38;;;;;;;;;;;;;;;29.50;29.40;99545.06;5090865;28;19912;-48
2021/05/29 08:59:04;;;;;;;;;;;;;;;29.78;29.48;99541.78;5091627;28;19969;-48
2021/05/29 09:01:29;;;;;;;;;;;;;;;29.83;29.82;99536.06;5091003;28;19919;-49
2021/05/29 09:03:59;;;;;;;;;;;;;;;29.67;29.95;99532.34;5091752;28;20006;-48
2021/05/29 09:06:30;;;;;;;;;;;;;;;29.33;31.24;99535.03;5091520;28;19912;-51
2021/05/29 09:08:57;;;;;;;;;;;;;;;29.05;30.10;99530.06;5098297;28;20339;-49
2021/05/29 09:11:36;;;;;;;;;;;;;;;28.57;31.00;99525.78;5103667;28;19939;-50
2021/05/29 09:14:05;;;;;;;;;;;;;;;28.56;31.52;99539.81;5105959;28;20022;-47
2021/05/29 09:16:30;;;;;;;;;;;;;;;28.88;30.85;99530.13;5093243;28;19924;-48
2021/05/29 09:18:57;;;;;;;;;;;;;;;30.07;29.35;99526.34;5106371;28;19958;-48
2021/05/29 09:21:33;;;;;;;;;;;;;;;30.42;28.48;99513.00;5097990;28;20057;-48
2021/05/29 09:24:00;;;;;;;;;;;;;;;29.87;29.46;99517.00;5109435;28;20041;-49
2021/05/29 09:26:45;;;;;;;;;;;;;;;30.12;28.64;99526.91;5094840;28;19922;-47
2021/05/29 09:29:16;;;;;;;;;;;;;;;30.32;28.98;99511.53;5083747;28;20252;-48
2021/05/29 09:32:01;;;;;;;;;;;;;;;30.70;28.02;99512.34;5102295;28;19922;-50
2021/05/29 09:34:30;;;;;;;;;;;;;;;30.04;28.93;99507.78;5094428;28;19947;-52
2021/05/29 09:37:02;;;;;;;;;;;;;;;29.78;29.26;99504.19;5105642;28;20284;-49
2021/05/29 09:39:30;;;;;;;;;;;;;;;29.27;30.16;99494.47;5100183;28;19912;-48
2021/05/29 09:41:57;;;;;;;;;;;;;;;29.83;29.49;99500.44;5098440;28;19912;-48
2021/05/29 09:44:22;;;;;;;;;;;;;;;29.77;29.92;99497.09;5108033;28;19920;-49
2021/05/29 09:46:54;;;;;;;;;;;;;;;29.77;29.90;99501.78;5092616;28;19911;-49
2021/05/29 09:49:20;;;;;;;;;;;;;;;29.31;30.16;99504.41;5102744;28;19993;-48
2021/05/29 09:51:45;;;;;;;;;;;;;;;30.02;28.89;99506.22;5102647;28;19993;-48
2021/05/29 09:54:11;;;;;;;;;;;;;;;29.86;28.53;99502.50;5095365;28;20428;-49
2021/05/29 09:56:40;;;;;;;;;;;;;;;30.05;28.89;99507.47;5106129;28;19915;-49
2021/05/29 09:59:12;;;;;;;;;;;;;;;30.43;27.90;99494.63;5095560;28;19912;-49
2021/05/29 10:01:39;;;;;;;;;;;;;;;30.52;28.36;99498.03;5089991;28;20463;-46
2021/05/29 10:04:04;;;;;;;;;;;;;;;30.57;29.10;99503.31;5090049;28;19927;-50
2021/05/29 10:06:29;;;;;;;;;;;;;;;30.39;28.14;99492.56;5089774;28;19912;-48
2021/05/29 10:08:55;;;;;;;;;;;;;;;30.18;27.72;99495.38;5089677;28;20081;-48
2021/05/29 10:11:20;;;;;;;;;;;;;;;29.91;27.58;99495.97;5089939;28;19919;-47
2021/05/29 10:13:45;;;;;;;;;;;;;;;30.89;27.56;99496.06;5089191;28;19928;-48
2021/05/29 10:16:11;;;;;;;;;;;;;;;30.86;27.70;99491.25;5089561;28;20331;-49
2021/05/29 10:18:36;;;;;;;;;;;;;;;31.26;26.97;99487.75;5088183;28;19912;-48
2021/05/29 10:21:01;;;;;;;;;;;;;;;30.89;27.95;99495.28;5087980;28;19923;-48
2021/05/29 10:23:27;;;;;;;;;;;;;;;30.11;27.79;99497.06;5103403;28;20391;-49
2021/05/29 10:25:52;;;;;;;;;;;;;;;31.05;26.56;99482.44;5110134;28;19919;-49
2021/05/29 10:28:17;;;;;;;;;;;;;;;30.88;27.59;99489.00;5110247;28;19912;-48
2021/05/29 10:30:43;;;;;;;;;;;;;;;30.37;28.89;99492.09;5109088;28;19919;-48
2021/05/29 10:33:12;;;;;;;;;;;;;;;30.66;28.82;99492.22;5110082;28;20019;-47
2021/05/29 10:35:39;;;;;;;;;;;;;;;31.45;27.23;99492.59;5109721;28;19939;-47
2021/05/29 10:38:04;;;;;;;;;;;;;;;31.09;27.21;99486.13;5109996;28;20352;-50
2021/05/29 10:40:31;;;;;;;;;;;;;;;31.68;26.89;99495.66;5110484;28;20014;-50
2021/05/29 10:43:03;;;;;;;;;;;;;;;31.77;26.23;99490.78;5110863;28;19984;-50
2021/05/29 10:45:28;;;;;;;;;;;;;;;31.73;25.92;99489.88;5110290;28;19915;-50
2021/05/29 10:48:00;;;;;;;;;;;;;;;31.14;26.86;99479.56;5110274;28;19923;-50
2021/05/29 10:50:44;;;;;;;;;;;;;;;31.85;25.88;99486.25;5110369;28;20010;-51
2021/05/29 10:53:10;;;;;;;;;;;;;;;31.98;25.93;99480.69;5110147;28;19912;-48
2021/05/29 10:55:35;;;;;;;;;;;;;;;32.34;25.63;99480.44;5108571;28;20311;-48
2021/05/29 10:58:02;;;;;;;;;;;;;;;32.14;25.81;99481.53;5108603;28;19922;-47
2021/05/29 11:00:40;;;;;;;;;;;;;;;32.83;25.17;99482.00;5109346;28;19912;-50
2021/05/29 11:03:21;;;;;;;;;;;;;;;33.72;23.19;99479.53;5109679;28;19916;-50
2021/05/29 11:05:50;;;;;;;;;;;;;;;33.96;23.40;99477.59;5109311;28;19916;-51
2021/05/29 11:08:33;;;;;;;;;;;;;;;33.06;24.86;99481.31;5109572;28;19912;-47
2021/05/29 11:10:59;;;;;;;;;;;;;;;34.34;23.17;99471.16;5109476;28;19926;-52
2021/05/29 11:13:57;;;;;;;;;;;;;;;34.94;21.35;99464.13;5109180;28;20037;-49
2021/05/29 11:16:22;;;;;;;;;;;;;;;32.90;22.56;99468.41;5096320;28;20419;-49
2021/05/29 11:19:06;;;;;;;;;;;;;;;32.68;23.37;99467.13;5109254;28;19918;-50
2021/05/29 11:21:31;;;;;;;;;;;;;;;32.15;23.82;99467.41;5106335;28;19912;-50
2021/05/29 11:23:56;;;;;;;;;;;;;;;31.58;24.34;99462.34;5107250;28;19915;-48
2021/05/29 11:26:25;;;;;;;;;;;;;;;31.29;25.17;99453.28;5109045;28;19961;-49
2021/05/29 11:28:50;;;;;;;;;;;;;;;31.55;25.64;99447.38;5109333;28;20414;-50
2021/05/29 11:31:18;;;;;;;;;;;;;;;32.66;24.64;99446.59;5109557;28;19962;-49
2021/05/29 11:33:53;;;;;;;;;;;;;;;33.51;23.79;99441.28;5108311;28;20447;-52
2021/05/29 11:36:28;;;;;;;;;;;;;;;34.26;21.93;99441.84;5109167;28;19912;-50
2021/05/29 11:38:53;;;;;;;;;;;;;;;34.20;21.72;99441.34;5109002;28;19916;-50
2021/05/29 11:41:19;;;;;;;;;;;;;;;33.50;22.44;99436.94;5107279;28;19918;-47
2021/05/29 11:43:53;;;;;;;;;;;;;;;33.45;22.26;99443.56;5109650;28;19911;-51
2021/05/29 11:46:20;;;;;;;;;;;;;;;33.92;22.60;99433.38;5109333;28;20345;-50
2021/05/29 11:48:46;;;;;;;;;;;;;;;34.40;22.08;99430.19;5109282;28;20327;-50
2021/05/29 11:51:15;;;;;;;;;;;;;;;34.28;21.81;99437.53;5109525;28;19958;-50
2021/05/29 11:53:50;;;;;;;;;;;;;;;34.70;22.01;99426.72;5109430;28;20483;-49
2021/05/29 11:56:19;;;;;;;;;;;;;;;34.35;20.52;99434.09;5089097;28;20391;-50
2021/05/29 11:58:47;;;;;;;;;;;;;;;32.36;23.74;99433.31;5089140;28;19912;-48
2021/05/29 12:01:13;;;;;;;;;;;;;;;32.34;22.59;99422.63;5089261;28;19950;-50
2021/05/29 12:03:39;;;;;;;;;;;;;;;32.48;23.23;99424.94;5089386;28;19965;-50
2021/05/29 12:06:05;;;;;;;;;;;;;;;32.57;22.51;99423.97;5089615;28;19912;-49
2021/05/29 12:08:30;;;;;;;;;;;;;;;32.34;22.83;99419.09;5089285;28;20015;-48
2021/05/29 12:10:55;;;;;;;;;;;;;;;33.46;21.95;99422.28;5089350;28;19919;-48
2021/05/29 12:13:27;;;;;;;;;;;;;;;34.28;21.20;99420.97;5089461;28;19920;-49
2021/05/29 12:15:59;;;;;;;;;;;;;;;33.93;21.19;99410.13;5089022;28;20864;-49
2021/05/29 12:18:25;;;;;;;;;;;;;;;33.92;22.43;99413.25;5088937;28;19912;-49
2021/05/29 12:20:53;;;;;;;;;;;;;;;33.74;22.71;99407.41;5088711;28;19920;-38
2021/05/29 12:23:19;;;;;;;;;;;;;;;33.16;22.92;99405.56;5088897;28;19919;-39
2021/05/29 12:25:44;;;;;;;;;;;;;;;32.32;23.34;99402.94;5088328;28;19916;-37
2021/05/29 12:28:09;;;;;;;;;;;;;;;33.27;22.97;99396.31;5088874;28;19912;-39
2021/05/29 12:30:35;;;;;;;;;;;;;;;33.36;22.37;99407.13;5087575;28;19918;-39
2021/05/29 12:33:00;;;;;;;;;;;;;;;33.08;22.84;99401.84;5088807;28;19923;-39
2021/05/29 12:35:32;;;;;;;;;;;;;;;34.01;22.31;99400.00;5088068;28;20368;-39
2021/05/29 12:38:13;;;;;;;;;;;;;;;34.63;21.27;99400.56;5092474;28;20407;-39
2021/05/29 12:40:38;;;;;;;;;;;;;;;34.62;21.20;99404.47;5092215;28;20352;-39
2021/05/29 12:43:11;;;;;;;;;;;;;;;34.99;20.90;99395.50;5092456;28;19913;-38
2021/05/29 12:45:40;;;;;;;;;;;;;;;35.19;19.60;99396.16;5090491;28;19924;-38
2021/05/29 12:48:05;;;;;;;;;;;;;;;35.42;19.63;99393.25;5092401;28;20578;-39
2021/05/29 12:51:29;;;;;;;;;;;;;;;35.85;19.27;99389.28;5091324;28;19951;-38
2021/05/29 12:53:30;;;;;;;;;;;;;;;36.51;19.45;99381.06;5088644;28;19912;-38
2021/05/29 12:56:25;;;;;;;;;;;;;;;36.58;19.96;99381.91;5092659;28;19912;-39